createdAt,value
2023-04-24T00:01:21.531Z,1.00
2023-04-24T00:03:48.363Z,0.90
2023-04-24T00:06:14.948Z,0.60
2023-04-24T00:08:41.579Z,1.00
2023-04-24T00:11:10.082Z,0.88
2023-04-24T00:13:36.687Z,0.80
2023-04-24T00:16:03.363Z,0.90
2023-04-24T00:18:29.910Z,1.10
2023-04-24T00:20:56.490Z,0.75
2023-04-24T00:23:23.035Z,0.80
2023-04-24T00:25:49.539Z,0.80
2023-04-24T00:28:16.382Z,0.90
2023-04-24T00:30:43.014Z,0.82
2023-04-24T00:33:09.549Z,1.00
2023-04-24T00:35:36.066Z,0.80
2023-04-24T00:38:02.597Z,0.95
2023-04-24T00:40:29.862Z,0.80
2023-04-24T00:42:56.677Z,0.82
2023-04-24T00:45:23.347Z,0.80
2023-04-24T00:47:51.254Z,1.10
2023-04-24T00:50:18.104Z,0.70
2023-04-24T00:52:45.124Z,0.80
2023-04-24T00:55:11.991Z,0.90
2023-04-24T00:57:39.041Z,0.85
2023-04-24T01:00:06.954Z,0.88
2023-04-24T01:02:35.616Z,1.10
2023-04-24T01:05:02.843Z,0.80
2023-04-24T01:07:30.110Z,0.80
2023-04-24T01:09:57.123Z,1.10
2023-04-24T01:12:23.692Z,0.95
2023-04-24T01:14:50.476Z,0.90
2023-04-24T01:17:17.044Z,0.80
2023-04-24T01:19:45.944Z,0.82
2023-04-24T01:22:15.059Z,0.90
2023-04-24T01:24:42.800Z,0.77
2023-04-24T01:27:11.340Z,0.75
2023-04-24T01:29:38.110Z,0.98
2023-04-24T01:32:05.733Z,0.73
2023-04-24T01:34:32.714Z,1.02
2023-04-24T01:36:59.633Z,0.80
2023-04-24T01:39:26.748Z,0.70
2023-04-24T01:41:54.552Z,0.75
2023-04-24T01:44:22.372Z,0.93
2023-04-24T01:46:49.144Z,0.80
2023-04-24T01:49:16.494Z,0.80
2023-04-24T01:51:43.141Z,0.65
2023-04-24T01:54:10.004Z,0.85
2023-04-24T01:56:37.385Z,0.85
2023-04-24T01:59:04.659Z,0.70
2023-04-24T02:01:37.948Z,0.88
2023-04-24T02:04:05.973Z,0.60
2023-04-24T02:06:32.809Z,0.70
2023-04-24T02:09:00.040Z,0.70
2023-04-24T02:11:27.045Z,0.90
2023-04-24T02:13:53.995Z,0.93
2023-04-24T02:16:20.623Z,0.82
2023-04-24T02:18:47.299Z,0.90
2023-04-24T02:21:13.874Z,0.90
2023-04-24T02:23:40.518Z,0.80
2023-04-24T02:26:07.239Z,0.77
2023-04-24T02:28:33.783Z,0.95
2023-04-24T02:31:00.899Z,0.80
2023-04-24T02:33:27.459Z,0.80
2023-04-24T02:35:53.977Z,0.75
2023-04-24T02:38:20.527Z,0.90
2023-04-24T02:40:47.094Z,1.00
2023-04-24T02:43:13.672Z,0.70
2023-04-24T02:45:40.309Z,1.00
2023-04-24T02:48:06.920Z,0.80
2023-04-24T02:50:34.427Z,0.77
2023-04-24T02:53:01.150Z,0.80
2023-04-24T02:55:27.755Z,0.90
2023-04-24T02:57:54.262Z,0.93
2023-04-24T03:00:20.943Z,0.95
2023-04-24T03:02:47.726Z,0.70
2023-04-24T03:05:14.729Z,0.90
2023-04-24T03:07:41.485Z,0.93
2023-04-24T03:10:09.893Z,0.98
2023-04-24T03:12:36.406Z,1.08
2023-04-24T03:15:03.233Z,0.90
2023-04-24T03:17:29.792Z,1.00
2023-04-24T03:19:56.450Z,0.98
2023-04-24T03:22:23.041Z,1.20
2023-04-24T03:24:49.691Z,1.10
2023-04-24T03:27:16.243Z,1.00
2023-04-24T03:29:43.002Z,0.90
2023-04-24T03:32:09.779Z,1.02
2023-04-24T03:34:36.403Z,0.90
2023-04-24T03:37:02.998Z,1.30
2023-04-24T03:39:29.646Z,1.02
2023-04-24T03:41:56.743Z,1.10
2023-04-24T03:44:23.476Z,0.88
2023-04-24T03:46:50.237Z,1.15
2023-04-24T03:49:16.845Z,1.35
2023-04-24T03:51:43.423Z,1.20
2023-04-24T03:54:10.055Z,1.27
2023-04-24T03:56:36.569Z,1.30
2023-04-24T03:59:03.370Z,1.10
2023-04-24T04:01:30.076Z,1.23
2023-04-24T04:03:56.754Z,1.27
2023-04-24T04:06:23.513Z,1.55
2023-04-24T04:08:50.101Z,1.38
2023-04-24T04:11:16.648Z,1.30
2023-04-24T04:13:43.214Z,1.27
2023-04-24T04:16:10.266Z,1.30
2023-04-24T04:18:37.142Z,1.50
2023-04-24T04:21:03.726Z,1.20
2023-04-24T04:23:30.596Z,1.45
2023-04-24T04:25:57.133Z,1.15
2023-04-24T04:28:23.711Z,1.30
2023-04-24T04:30:50.261Z,1.38
2023-04-24T04:33:17.252Z,1.85
2023-04-24T04:35:43.824Z,1.45
2023-04-24T04:38:11.775Z,1.35
2023-04-24T04:40:38.326Z,1.35
2023-04-24T04:43:05.009Z,1.38
2023-04-24T04:45:31.699Z,1.40
2023-04-24T04:47:58.366Z,1.50
2023-04-24T04:50:24.947Z,1.40
2023-04-24T04:52:51.473Z,1.50
2023-04-24T04:55:19.228Z,1.38
2023-04-24T04:57:46.253Z,1.58
2023-04-24T05:00:13.322Z,1.40
2023-04-24T05:02:40.546Z,1.40
2023-04-24T05:05:08.229Z,1.30
2023-04-24T05:07:34.927Z,1.40
2023-04-24T05:10:01.601Z,1.27
2023-04-24T05:12:28.282Z,1.63
2023-04-24T05:14:54.883Z,1.40
2023-04-24T05:17:21.503Z,1.42
2023-04-24T05:19:49.053Z,1.40
2023-04-24T05:22:16.047Z,1.35
2023-04-24T05:24:42.602Z,1.35
2023-04-24T05:27:09.110Z,1.60
2023-04-24T05:29:36.607Z,1.80
2023-04-24T05:32:03.185Z,1.60
2023-04-24T05:34:29.711Z,1.70
2023-04-24T05:36:56.370Z,1.55
2023-04-24T05:39:23.041Z,1.60
2023-04-24T05:41:49.616Z,1.77
2023-04-24T05:44:16.185Z,1.70
2023-04-24T05:46:42.836Z,1.95
2023-04-24T05:49:09.412Z,1.70
2023-04-24T05:51:36.289Z,1.60
2023-04-24T05:54:03.999Z,1.90
2023-04-24T05:56:30.830Z,1.80
2023-04-24T05:58:57.467Z,2.13
2023-04-24T06:01:24.294Z,2.10
2023-04-24T06:03:51.056Z,2.10
2023-04-24T06:06:17.833Z,2.13
2023-04-24T06:08:46.359Z,2.50
2023-04-24T06:11:12.979Z,2.08
2023-04-24T06:13:39.590Z,1.80
2023-04-24T06:16:06.577Z,1.80
2023-04-24T06:18:33.189Z,1.60
2023-04-24T06:20:59.755Z,1.80
2023-04-24T06:23:26.392Z,2.10
2023-04-24T06:25:53.111Z,1.90
2023-04-24T06:28:19.751Z,1.73
2023-04-24T06:30:46.392Z,1.90
2023-04-24T06:33:21.027Z,1.83
2023-04-24T06:35:48.622Z,2.20
2023-04-24T06:38:15.388Z,2.30
2023-04-24T06:40:41.924Z,2.53
2023-04-24T06:43:08.709Z,2.58
2023-04-24T06:45:35.416Z,2.60
2023-04-24T06:48:02.068Z,2.45
2023-04-24T06:50:28.699Z,2.70
2023-04-24T06:52:55.232Z,2.20
2023-04-24T06:55:21.940Z,3.28
2023-04-24T06:57:48.487Z,3.08
2023-04-24T07:00:15.538Z,3.40
2023-04-24T07:02:42.196Z,3.50
2023-04-24T07:05:09.294Z,3.72
2023-04-24T07:07:38.551Z,3.97
2023-04-24T07:10:06.195Z,4.47
2023-04-24T07:12:33.294Z,3.60
2023-04-24T07:14:59.955Z,2.20
2023-04-24T07:17:26.784Z,2.38
2023-04-24T07:19:53.365Z,2.03
2023-04-24T07:22:19.918Z,2.05
2023-04-24T07:24:46.488Z,2.78
2023-04-24T07:27:13.221Z,2.20
2023-04-24T07:29:41.111Z,2.35
2023-04-24T07:32:08.874Z,2.33
2023-04-24T07:34:35.881Z,2.40
2023-04-24T07:37:03.015Z,2.10
2023-04-24T07:39:30.332Z,2.15
2023-04-24T07:41:56.902Z,2.00
2023-04-24T07:44:23.489Z,2.05
2023-04-24T07:46:50.415Z,2.42
2023-04-24T07:49:19.778Z,2.30
2023-04-24T07:51:47.124Z,2.20
2023-04-24T07:54:13.866Z,2.13
2023-04-24T07:56:42.878Z,2.90
2023-04-24T07:59:10.945Z,2.30
2023-04-24T08:01:38.026Z,2.30
2023-04-24T08:04:04.763Z,2.53
2023-04-24T08:06:32.696Z,2.60
2023-04-24T08:09:00.328Z,2.30
2023-04-24T08:11:27.558Z,4.28
2023-04-24T08:13:55.413Z,2.70
2023-04-24T08:16:22.080Z,3.00
2023-04-24T08:18:48.757Z,2.80
2023-04-24T08:21:18.062Z,2.28
2023-04-24T08:23:44.949Z,2.75
2023-04-24T08:26:12.138Z,2.70
2023-04-24T08:28:38.999Z,2.70
2023-04-24T08:31:06.187Z,2.22
2023-04-24T08:33:35.331Z,2.28
2023-04-24T08:36:06.251Z,2.33
2023-04-24T08:38:33.382Z,2.70
2023-04-24T08:41:01.143Z,2.70
2023-04-24T08:43:29.275Z,2.40
2023-04-24T08:45:57.969Z,2.08
2023-04-24T08:48:30.806Z,2.20
2023-04-24T08:50:58.382Z,2.28
2023-04-24T08:53:26.275Z,2.10
2023-04-24T08:55:56.389Z,2.13
2023-04-24T08:58:26.156Z,2.25
2023-04-24T09:00:55.258Z,2.45
2023-04-24T09:03:22.939Z,2.00
2023-04-24T09:05:51.396Z,2.10
2023-04-24T09:08:20.720Z,1.73
2023-04-24T09:10:49.817Z,2.08
2023-04-24T09:13:19.579Z,2.10
2023-04-24T09:15:46.378Z,1.98
2023-04-24T09:18:13.052Z,1.75
2023-04-24T09:20:58.894Z,1.70
2023-04-24T09:23:28.465Z,1.75
2023-04-24T09:25:59.599Z,2.15
2023-04-24T09:28:30.913Z,2.03
2023-04-24T09:31:14.790Z,2.35
2023-04-24T09:33:44.250Z,2.00
2023-04-24T09:36:10.859Z,2.30
2023-04-24T09:38:39.126Z,1.77
2023-04-24T09:41:09.115Z,2.13
2023-04-24T09:43:36.595Z,2.55
2023-04-24T09:46:09.606Z,2.03
2023-04-24T09:48:38.104Z,1.95
2023-04-24T09:51:12.247Z,2.00
2023-04-24T09:53:40.293Z,2.10
2023-04-24T09:56:13.454Z,2.00
2023-04-24T09:58:40.599Z,2.22
2023-04-24T10:01:07.294Z,1.90
2023-04-24T10:03:34.997Z,2.08
2023-04-24T10:06:03.027Z,1.90
2023-04-24T10:08:37.241Z,2.00
2023-04-24T10:11:04.394Z,1.80
2023-04-24T10:13:33.084Z,2.20
2023-04-24T10:16:01.442Z,1.55
2023-04-24T10:18:28.476Z,1.80
2023-04-24T10:20:55.920Z,1.80
2023-04-24T10:23:24.092Z,1.80
2023-04-24T10:25:53.279Z,1.80
2023-04-24T10:28:21.180Z,1.25
2023-04-24T10:30:48.426Z,1.80
2023-04-24T10:33:15.666Z,1.50
2023-04-24T10:35:46.604Z,1.75
2023-04-24T10:38:14.999Z,1.50
2023-04-24T10:40:43.724Z,1.38
2023-04-24T10:43:13.266Z,1.25
2023-04-24T10:45:41.022Z,1.80
2023-04-24T10:48:14.301Z,1.65
2023-04-24T10:50:52.695Z,1.80
2023-04-24T10:53:29.598Z,1.90
2023-04-24T10:56:03.278Z,1.90
2023-04-24T10:58:49.002Z,2.00
2023-04-24T11:01:29.944Z,1.80
2023-04-24T11:04:00.879Z,1.90
2023-04-24T11:06:37.780Z,2.28
2023-04-24T11:09:13.377Z,2.00
2023-04-24T11:11:46.549Z,2.03
2023-04-24T11:14:16.159Z,1.65
2023-04-24T11:16:45.359Z,2.00
2023-04-24T11:19:17.861Z,1.77
2023-04-24T11:21:49.484Z,1.60
2023-04-24T11:24:30.226Z,1.33
2023-04-24T11:26:58.892Z,1.60
2023-04-24T11:29:40.784Z,1.40
2023-04-24T11:32:28.152Z,1.40
2023-04-24T11:34:56.733Z,1.50
2023-04-24T11:37:25.647Z,1.30
2023-04-24T11:39:57.078Z,2.80
2023-04-24T11:42:24.535Z,1.77
2023-04-24T11:44:53.755Z,1.50
2023-04-24T11:47:20.395Z,1.60
2023-04-24T11:49:47.209Z,1.45
2023-04-24T11:52:17.768Z,2.00
2023-04-24T11:54:53.783Z,1.52
2023-04-24T11:57:22.879Z,2.35
2023-04-24T11:59:50.559Z,2.10
2023-04-24T12:02:26.811Z,1.85
2023-04-24T12:04:55.048Z,1.73
2023-04-24T12:07:23.403Z,1.50
2023-04-24T12:09:59.472Z,1.15
2023-04-24T12:12:28.084Z,1.20
2023-04-24T12:14:59.545Z,1.55
2023-04-24T12:17:29.566Z,1.30
2023-04-24T12:20:04.655Z,1.38
2023-04-24T12:22:51.441Z,1.10
2023-04-24T12:25:19.843Z,1.20
2023-04-24T12:27:47.958Z,1.30
2023-04-24T12:30:16.599Z,1.45
2023-04-24T12:32:48.052Z,1.15
2023-04-24T12:35:20.734Z,1.23
2023-04-24T12:37:47.865Z,1.50
2023-04-24T12:40:15.832Z,1.20
2023-04-24T12:42:50.465Z,1.63
2023-04-24T12:45:18.459Z,1.50
2023-04-24T12:47:46.510Z,1.40
2023-04-24T12:50:16.067Z,1.60
2023-04-24T12:52:43.867Z,1.80
2023-04-24T12:55:11.749Z,1.45
2023-04-24T12:57:40.721Z,1.58
2023-04-24T13:00:09.105Z,1.60
2023-04-24T13:02:36.331Z,1.80
2023-04-24T13:05:03.584Z,2.00
2023-04-24T13:07:30.215Z,2.53
2023-04-24T13:09:58.382Z,2.10
2023-04-24T13:12:26.257Z,2.80
2023-04-24T13:14:53.092Z,2.50
2023-04-24T13:17:19.675Z,2.90
2023-04-24T13:19:46.392Z,3.17
2023-04-24T13:22:14.168Z,3.10
2023-04-24T13:24:42.146Z,3.72
2023-04-24T13:27:10.418Z,4.00
2023-04-24T13:29:37.730Z,3.50
2023-04-24T13:32:04.682Z,3.58
2023-04-24T13:34:31.244Z,3.47
2023-04-24T13:36:59.428Z,3.38
2023-04-24T13:39:27.025Z,4.07
2023-04-24T13:41:54.211Z,4.13
2023-04-24T13:44:21.725Z,3.50
2023-04-24T13:46:49.563Z,2.78
2023-04-24T13:49:16.730Z,3.28
2023-04-24T13:51:43.921Z,2.72
2023-04-24T13:54:10.699Z,3.05
2023-04-24T13:56:37.264Z,2.70
2023-04-24T13:59:03.982Z,2.25
2023-04-24T14:01:30.690Z,2.25
2023-04-24T14:03:57.929Z,2.55
2023-04-24T14:06:24.752Z,2.60
2023-04-24T14:08:51.519Z,3.33
2023-04-24T14:11:19.183Z,3.08
2023-04-24T14:13:46.807Z,2.88
2023-04-24T14:16:14.095Z,3.70
2023-04-24T14:18:40.921Z,2.90
2023-04-24T14:21:07.713Z,3.40
2023-04-24T14:23:34.354Z,3.60
2023-04-24T14:26:00.992Z,3.28
2023-04-24T14:28:27.566Z,2.90
2023-04-24T14:30:54.356Z,2.83
2023-04-24T14:33:21.590Z,2.92
2023-04-24T14:35:48.685Z,3.40
2023-04-24T14:38:16.196Z,2.85
2023-04-24T14:43:12.753Z,3.03
2023-04-24T14:45:41.128Z,2.67
2023-04-24T14:48:09.238Z,2.78
2023-04-24T14:50:37.206Z,2.78
2023-04-24T14:53:03.953Z,2.95
2023-04-24T14:55:30.756Z,2.97
2023-04-24T14:57:57.440Z,3.33
2023-04-24T15:00:24.912Z,3.08
2023-04-24T15:02:51.831Z,3.42
2023-04-24T15:05:18.996Z,3.03
2023-04-24T15:07:46.325Z,4.15
2023-04-24T15:10:13.068Z,3.28
2023-04-24T15:12:39.930Z,2.97
2023-04-24T15:15:07.339Z,3.60
2023-04-24T15:17:33.974Z,3.80
2023-04-24T15:20:01.776Z,3.50
2023-04-24T15:22:28.549Z,3.25
2023-04-24T15:24:55.164Z,3.17
2023-04-24T15:27:22.264Z,3.28
2023-04-24T15:29:48.913Z,3.40
2023-04-24T15:32:15.534Z,3.47
2023-04-24T15:34:42.173Z,4.95
2023-04-24T15:37:09.143Z,3.80
2023-04-24T15:39:35.704Z,3.47
2023-04-24T15:42:02.573Z,3.10
2023-04-24T15:44:29.237Z,2.67
2023-04-24T15:46:56.181Z,3.00
2023-04-24T15:49:22.930Z,3.35
2023-04-24T15:51:49.502Z,3.20
2023-04-24T15:54:16.472Z,3.30
2023-04-24T15:56:44.644Z,2.80
2023-04-24T15:59:11.292Z,2.60
2023-04-24T16:01:38.035Z,3.17
2023-04-24T16:04:04.752Z,3.13
2023-04-24T16:06:31.994Z,3.42
2023-04-24T16:08:59.957Z,3.38
2023-04-24T16:11:27.676Z,3.58
2023-04-24T16:13:54.297Z,3.65
2023-04-24T16:16:20.998Z,3.67
2023-04-24T16:18:47.767Z,3.00
2023-04-24T16:21:14.742Z,3.30
2023-04-24T16:23:42.028Z,2.97
2023-04-24T16:26:08.562Z,3.40
2023-04-24T16:28:35.383Z,3.13
2023-04-24T16:31:02.034Z,3.17
2023-04-24T16:33:28.658Z,3.00
2023-04-24T16:35:56.110Z,3.25
2023-04-24T16:38:24.400Z,3.10
2023-04-24T16:40:51.021Z,3.03
2023-04-24T16:43:18.744Z,2.83
2023-04-24T16:45:45.900Z,2.90
2023-04-24T16:48:12.767Z,2.95
2023-04-24T16:50:39.428Z,2.85
2023-04-24T16:53:07.051Z,3.13
2023-04-24T16:55:33.604Z,3.10
2023-04-24T16:58:00.216Z,2.95
2023-04-24T17:00:26.789Z,2.78
2023-04-24T17:02:53.483Z,2.53
2023-04-24T17:05:23.386Z,2.90
2023-04-24T17:07:50.566Z,3.20
2023-04-24T17:10:17.331Z,4.10
2023-04-24T17:12:43.925Z,4.57
2023-04-24T17:15:11.131Z,5.07
2023-04-24T17:17:38.238Z,5.47
2023-04-24T17:20:14.909Z,4.53
2023-04-24T17:22:48.076Z,5.78
2023-04-24T17:25:14.640Z,5.15
2023-04-24T17:27:41.224Z,3.88
2023-04-24T17:30:08.362Z,4.97
2023-04-24T17:32:34.923Z,3.40
2023-04-24T17:35:02.014Z,3.40
2023-04-24T17:37:28.579Z,3.10
2023-04-24T17:39:55.343Z,3.33
2023-04-24T17:42:21.866Z,3.25
2023-04-24T17:44:48.430Z,3.83
2023-04-24T17:47:15.000Z,4.38
2023-04-24T17:49:42.720Z,3.00
2023-04-24T17:52:09.624Z,3.20
2023-04-24T17:54:36.456Z,3.10
2023-04-24T17:57:03.230Z,2.72
2023-04-24T17:59:29.832Z,2.95
2023-04-24T18:02:03.006Z,3.22
2023-04-24T18:13:58.118Z,2.63
2023-04-24T18:16:28.701Z,2.80
2023-04-24T18:19:05.608Z,2.78
2023-04-24T18:21:57.144Z,2.70
2023-04-24T18:24:23.810Z,3.08
2023-04-24T18:26:50.549Z,2.70
2023-04-24T18:29:17.156Z,2.72
2023-04-24T18:31:43.888Z,2.67
2023-04-24T18:34:10.750Z,2.60
2023-04-24T18:36:37.452Z,2.33
2023-04-24T18:39:04.139Z,2.40
2023-04-24T18:41:30.891Z,2.55
2023-04-24T18:43:59.083Z,3.00
2023-04-24T18:46:25.937Z,2.55
2023-04-24T18:48:52.624Z,3.50
2023-04-24T18:51:19.419Z,2.97
2023-04-24T18:53:47.089Z,3.05
2023-04-24T18:56:13.785Z,3.03
2023-04-24T18:58:44.302Z,2.80
2023-04-24T19:01:11.189Z,2.80
2023-04-24T19:03:40.874Z,2.70
2023-04-24T19:06:07.588Z,3.10
2023-04-24T19:08:36.491Z,3.50
2023-04-24T19:11:03.244Z,3.22
2023-04-24T19:13:29.833Z,3.50
2023-04-24T19:15:56.448Z,3.30
2023-04-24T19:18:23.125Z,3.30
2023-04-24T19:20:49.712Z,3.22
2023-04-24T19:23:16.288Z,3.28
2023-04-24T19:25:42.924Z,3.20
2023-04-24T19:28:09.549Z,2.90
2023-04-24T19:30:36.440Z,2.90
2023-04-24T19:33:03.096Z,3.13
2023-04-24T19:35:30.874Z,3.53
2023-04-24T19:37:57.553Z,3.47
2023-04-24T19:40:24.169Z,3.70
2023-04-24T19:42:50.825Z,3.60
2023-04-24T19:45:17.726Z,3.47
2023-04-24T19:47:45.794Z,2.85
2023-04-24T19:50:12.618Z,2.63
2023-04-24T19:52:39.362Z,2.35
2023-04-24T19:55:06.405Z,2.20
2023-04-24T19:57:32.957Z,2.45
2023-04-24T19:59:59.766Z,2.72
2023-04-24T20:02:26.539Z,2.50
2023-04-24T20:04:53.425Z,2.55
2023-04-24T20:07:20.308Z,2.80
2023-04-24T20:09:46.847Z,2.97
2023-04-24T20:12:13.553Z,2.55
2023-04-24T20:14:40.717Z,2.80
2023-04-24T20:17:07.659Z,3.42
2023-04-24T20:19:34.998Z,3.13
2023-04-24T20:22:01.652Z,3.17
2023-04-24T20:24:28.705Z,3.30
2023-04-24T20:26:55.300Z,3.60
2023-04-24T20:29:21.892Z,3.60
2023-04-24T20:31:48.551Z,3.70
2023-04-24T20:34:15.487Z,3.35
2023-04-24T20:36:48.826Z,3.28
2023-04-24T20:39:16.245Z,3.80
2023-04-24T20:41:44.021Z,4.10
2023-04-24T20:44:11.584Z,4.10
2023-04-24T20:46:38.582Z,4.63
2023-04-24T20:49:07.617Z,4.25
2023-04-24T20:51:34.470Z,4.70
2023-04-24T20:54:01.249Z,5.55
2023-04-24T20:56:27.904Z,5.60
2023-04-24T20:58:56.812Z,5.57
2023-04-24T21:01:24.059Z,5.50
2023-04-24T21:03:52.317Z,5.55
2023-04-24T21:06:19.302Z,5.78
2023-04-24T21:08:46.005Z,6.10
2023-04-24T21:11:12.567Z,5.60
2023-04-24T21:13:39.104Z,5.30
2023-04-24T21:16:06.172Z,6.00
2023-04-24T21:18:33.059Z,5.63
2023-04-24T21:20:59.641Z,5.70
2023-04-24T21:23:26.732Z,5.43
2023-04-24T21:25:53.368Z,5.63
2023-04-24T21:28:20.032Z,5.13
2023-04-24T21:30:46.693Z,5.10
2023-04-24T21:33:13.488Z,4.90
2023-04-24T21:35:40.277Z,4.55
2023-04-24T21:38:06.930Z,5.18
2023-04-24T21:40:33.614Z,5.13
2023-04-24T21:43:00.192Z,5.13
2023-04-24T21:45:26.786Z,4.53
2023-04-24T21:47:53.389Z,4.45
2023-04-24T21:50:20.021Z,4.78
2023-04-24T21:52:46.567Z,4.20
2023-04-24T21:55:13.118Z,4.63
2023-04-24T21:57:40.043Z,4.50
2023-04-24T22:00:08.391Z,4.50
2023-04-24T22:02:35.548Z,4.68
2023-04-24T22:05:04.288Z,4.15
2023-04-24T22:07:33.934Z,4.13
2023-04-24T22:10:00.842Z,4.80
2023-04-24T22:12:27.460Z,5.00
2023-04-24T22:14:54.036Z,4.57
2023-04-24T22:17:20.616Z,4.10
2023-04-24T22:19:47.258Z,4.30
2023-04-24T22:22:13.811Z,5.20
2023-04-24T22:24:40.361Z,4.57
2023-04-24T22:27:06.962Z,5.00
2023-04-24T22:29:33.538Z,4.85
2023-04-24T22:32:00.323Z,4.55
2023-04-24T22:34:27.508Z,5.43
2023-04-24T22:36:54.079Z,5.22
2023-04-24T22:39:21.577Z,4.95
2023-04-24T22:41:48.230Z,5.78
2023-04-24T22:44:14.868Z,5.78
2023-04-24T22:46:41.448Z,6.00
2023-04-24T22:49:08.063Z,6.53
2023-04-24T22:51:35.177Z,6.72
2023-04-24T22:54:05.193Z,7.43
2023-04-24T22:56:32.012Z,7.07
2023-04-24T22:58:59.214Z,7.13
2023-04-24T23:01:27.248Z,7.40
2023-04-24T23:03:54.779Z,7.25
2023-04-24T23:06:22.003Z,8.05
2023-04-24T23:08:48.779Z,8.65
2023-04-24T23:11:15.469Z,8.90
2023-04-24T23:13:42.329Z,8.40
2023-04-24T23:16:08.908Z,9.30
2023-04-24T23:18:35.452Z,9.50
2023-04-24T23:21:03.348Z,10.40
2023-04-24T23:23:29.897Z,10.13
2023-04-24T23:25:56.900Z,8.88
2023-04-24T23:28:23.494Z,10.77
2023-04-24T23:30:50.052Z,10.57
2023-04-24T23:33:16.591Z,10.02
2023-04-24T23:35:43.233Z,9.15
2023-04-24T23:38:09.769Z,10.07
2023-04-24T23:40:36.297Z,9.55
2023-04-24T23:43:06.786Z,9.98
2023-04-24T23:45:35.321Z,9.15
2023-04-24T23:48:02.046Z,8.38
2023-04-24T23:50:28.614Z,9.65
2023-04-24T23:52:55.585Z,9.32
2023-04-24T23:55:22.133Z,8.77
2023-04-24T23:57:48.661Z,9.73
